Time;durP1;ratioP1;P1;durP2;ratioP2;P2;SDS_P1;SDS_P2;PMS_P1;PMS_P2;Temp;Humidity;BMP_temperature;BMP_pressure;BME280_temperature;BME280_humidity;BME280_pressure;Samples;Min_cycle;Max_cycle;Signal;HPM_P1;HPM_P2
2023/01/13 00:01:26;;;;;;;10.85;2.70;;;;;;;10.11;78.82;100205.81;3605976;39;20046;-64
2023/01/13 00:03:51;;;;;;;14.75;5.07;;;;;;;10.07;79.55;100210.56;3607473;39;20127;-64
2023/01/13 00:06:28;;;;;;;13.63;2.30;;;;;;;10.04;79.43;100215.28;3605199;39;20055;-65
2023/01/13 00:08:53;;;;;;;14.57;2.78;;;;;;;9.98;78.91;100195.94;3603851;39;20418;-64
2023/01/13 00:11:21;;;;;;;11.07;2.10;;;;;;;9.97;78.20;100218.41;3605848;39;20061;-64
2023/01/13 00:13:46;;;;;;;12.77;2.78;;;;;;;9.97;77.89;100215.72;3602565;39;20055;-64
2023/01/13 00:16:16;;;;;;;9.77;2.28;;;;;;;9.93;78.61;100211.53;3605925;39;20051;-65
2023/01/13 00:18:43;;;;;;;12.85;2.40;;;;;;;9.90;78.46;100209.06;3607666;39;20073;-64
2023/01/13 00:21:22;;;;;;;20.65;2.88;;;;;;;9.87;77.77;100198.53;3603089;39;20069;-65
2023/01/13 00:23:50;;;;;;;15.10;2.53;;;;;;;9.67;77.43;100172.19;3605778;39;20113;-64
2023/01/13 00:26:26;;;;;;;17.45;2.85;;;;;;;9.82;76.86;100189.91;3604711;39;20051;-64
2023/01/13 00:28:59;;;;;;;14.55;3.20;;;;;;;9.78;76.78;100180.38;3603871;39;20054;-64
2023/01/13 00:31:27;;;;;;;18.35;3.75;;;;;;;9.73;77.22;100183.34;3602643;39;20045;-64
2023/01/13 00:33:56;;;;;;;18.80;3.03;;;;;;;9.68;76.64;100181.97;3607501;39;20057;-65
2023/01/13 00:36:22;;;;;;;20.05;3.47;;;;;;;9.66;77.21;100183.88;3604069;39;20066;-65
2023/01/13 00:38:48;;;;;;;20.85;3.33;;;;;;;9.63;76.43;100178.72;3606406;39;20064;-64
2023/01/13 00:41:21;;;;;;;17.58;3.60;;;;;;;9.62;76.52;100169.81;3603056;39;20059;-65
2023/01/13 00:43:47;;;;;;;15.68;3.53;;;;;;;9.59;76.81;100155.75;3602947;39;20411;-65
2023/01/13 00:46:20;;;;;;;17.08;3.17;;;;;;;9.54;77.09;100164.97;3606166;39;20317;-65
2023/01/13 00:48:47;;;;;;;15.13;2.78;;;;;;;9.46;76.46;100156.59;3605508;39;20063;-64
2023/01/13 00:51:17;;;;;;;19.63;3.65;;;;;;;9.52;76.63;100160.69;3604521;39;20051;-65
2023/01/13 00:53:50;;;;;;;19.77;3.35;;;;;;;9.52;76.96;100160.69;3607166;39;20079;-64
2023/01/13 00:56:20;;;;;;;20.40;4.83;;;;;;;9.49;77.55;100161.75;3602424;39;20060;-64
2023/01/13 00:58:46;;;;;;;13.35;2.90;;;;;;;9.44;77.53;100147.78;3602636;39;20050;-65
2023/01/13 01:01:20;;;;;;;15.88;3.00;;;;;;;9.49;77.84;100161.75;3604885;39;20046;-64
2023/01/13 01:03:55;;;;;;;15.73;3.30;;;;;;;9.50;77.63;100160.78;3606925;39;20059;-65
2023/01/13 01:06:26;;;;;;;16.35;3.38;;;;;;;9.52;77.37;100160.69;3603276;39;20189;-65
2023/01/13 01:08:54;;;;;;;19.05;2.95;;;;;;;9.48;78.11;100178.81;3601933;39;20091;-65
2023/01/13 01:11:23;;;;;;;17.77;3.30;;;;;;;9.28;78.02;100134.53;3604278;39;20454;-64
2023/01/13 01:13:53;;;;;;;16.52;2.95;;;;;;;9.50;77.79;100176.88;3604485;39;20062;-64
2023/01/13 01:16:23;;;;;;;14.18;3.28;;;;;;;9.55;77.80;100171.22;3606854;39;20047;-65
2023/01/13 01:18:52;;;;;;;19.55;3.50;;;;;;;9.58;77.94;100188.91;3606225;39;20055;-64
2023/01/13 01:21:20;;;;;;;12.80;2.60;;;;;;;9.62;78.42;100171.66;3603222;39;20381;-65
2023/01/13 01:23:46;;;;;;;22.63;3.63;;;;;;;9.68;77.21;100171.22;3606554;39;20063;-64
2023/01/13 01:26:17;;;;;;;20.10;3.28;;;;;;;9.68;77.37;100171.22;3604345;39;20058;-64
2023/01/13 01:28:44;;;;;;;18.67;3.90;;;;;;;9.62;77.15;100167.13;3608342;39;20391;-65
2023/01/13 01:31:16;;;;;;;15.20;2.85;;;;;;;9.65;76.95;100176.81;3607488;39;20266;-64
2023/01/13 01:33:42;;;;;;;15.07;3.63;;;;;;;9.69;75.58;100170.25;3605896;39;20061;-65
2023/01/13 01:36:11;;;;;;;20.27;3.50;;;;;;;9.65;76.31;100174.13;3608147;39;20057;-65
2023/01/13 01:38:37;;;;;;;16.30;3.55;;;;;;;9.65;75.48;100176.81;3608177;39;20580;-64
2023/01/13 01:41:04;;;;;;;12.82;3.20;;;;;;;9.64;75.40;100181.31;3605225;39;20156;-64
2023/01/13 01:43:58;;;;;;;18.05;3.13;;;;;;;9.65;74.86;100184.88;3606266;39;20118;-64
2023/01/13 01:46:36;;;;;;;16.42;3.92;;;;;;;9.63;74.67;100190.31;3596595;39;20063;-64
2023/01/13 01:49:18;;;;;;;20.40;3.38;;;;;;;9.58;74.73;100178.16;3608866;39;20059;-64
2023/01/13 01:51:59;;;;;;;15.68;3.38;;;;;;;9.53;73.68;100182.03;3605038;39;20051;-65
2023/01/13 01:54:38;;;;;;;21.42;4.25;;;;;;;9.49;73.33;100175.16;3605019;39;20589;-64
2023/01/13 01:57:09;;;;;;;21.17;3.72;;;;;;;9.45;73.56;100176.34;3603613;39;20116;-65
2023/01/13 01:59:37;;;;;;;30.02;4.82;;;;;;;9.45;72.94;100186.19;3607543;39;20059;-65
2023/01/13 02:02:03;;;;;;;15.68;3.70;;;;;;;9.39;73.03;100182.13;3608143;39;20047;-64
2023/01/13 02:04:38;;;;;;;22.13;4.40;;;;;;;9.37;71.99;100178.66;3606833;39;20136;-64
2023/01/13 02:07:05;;;;;;;23.15;4.75;;;;;;;9.36;71.62;100171.59;3604868;39;20057;-65
2023/01/13 02:09:32;;;;;;;26.80;4.53;;;;;;;9.37;70.90;100184.03;3603430;39;20066;-64
2023/01/13 02:14:44;;;;;;;21.35;4.00;;;;;;;9.35;70.67;100179.72;3609301;39;20046;-64
2023/01/13 02:17:51;;;;;;;24.80;4.03;;;;;;;9.29;70.74;100175.63;3606655;39;20077;-64
2023/01/13 02:20:45;;;;;;;21.77;4.30;;;;;;;9.29;70.82;100172.94;3560006;40;20338;-65
2023/01/13 02:27:08;;;;;;;26.25;5.43;;;;;;;9.20;71.15;100176.28;3603850;39;20057;-64
2023/01/13 02:34:00;;;;;;;25.70;4.25;;;;;;;9.11;72.74;100179.56;3608006;39;20115;-64
2023/01/13 02:36:45;;;;;;;23.67;4.63;;;;;;;9.12;72.24;100183.94;3586352;39;20114;-64
2023/01/13 02:39:34;;;;;;;22.73;3.83;;;;;;;9.12;73.41;100189.31;3605015;39;20047;-64
2023/01/13 02:45:45;;;;;;;32.42;4.93;;;;;;;9.16;73.18;100172.06;3597654;39;20517;-64
2023/01/13 02:48:16;;;;;;;26.52;4.75;;;;;;;8.94;73.80;100119.84;3605779;39;20107;-64
2023/01/13 02:50:57;;;;;;;22.73;3.90;;;;;;;9.23;73.26;100163.53;3610127;39;20059;-65
2023/01/13 02:53:38;;;;;;;20.58;4.20;;;;;;;9.26;73.51;100163.31;3603830;39;20360;-64
2023/01/13 02:56:08;;;;;;;21.75;4.43;;;;;;;9.32;73.02;100171.88;3606979;39;20066;-64
2023/01/13 02:58:39;;;;;;;21.52;3.78;;;;;;;9.37;73.42;100159.91;3604515;39;20127;-64
2023/01/13 03:01:05;;;;;;;16.60;4.00;;;;;;;9.37;73.34;100157.22;3603803;39;20125;-64
2023/01/13 03:03:31;;;;;;;20.73;3.08;;;;;;;9.42;72.61;100139.00;3605329;39;20188;-64
2023/01/13 03:06:29;;;;;;;21.15;3.70;;;;;;;9.44;72.32;100147.78;3598813;39;20062;-64
2023/01/13 03:09:09;;;;;;;12.65;3.67;;;;;;;9.49;72.94;100134.06;3607671;39;20123;-64
2023/01/13 03:12:35;;;;;;;18.55;3.42;;;;;;;9.47;72.17;100130.63;3604078;39;20055;-64
2023/01/13 03:15:45;;;;;;;24.13;3.95;;;;;;;9.51;71.90;100154.47;3604436;39;20112;-64
2023/01/13 03:18:55;;;;;;;16.60;2.85;;;;;;;9.53;71.86;100135.56;3606335;39;20059;-64
2023/01/13 03:21:59;;;;;;;13.65;3.22;;;;;;;9.55;72.21;100139.03;3604001;39;20217;-64
2023/01/13 03:24:35;;;;;;;19.33;3.50;;;;;;;9.59;71.55;100131.63;3608945;39;20054;-64
2023/01/13 03:27:22;;;;;;;16.02;2.95;;;;;;;9.61;70.96;100143.06;3605513;39;20421;-64
2023/01/13 03:30:10;;;;;;;15.10;3.13;;;;;;;9.59;70.36;100120.88;3608143;39;20054;-65
2023/01/13 03:32:44;;;;;;;19.25;4.30;;;;;;;9.71;70.61;100139.66;3605272;39;20102;-64
2023/01/13 03:35:31;;;;;;;13.95;2.92;;;;;;;9.75;69.88;100137.63;3610446;39;20119;-64
2023/01/13 03:38:09;;;;;;;15.63;2.92;;;;;;;9.70;69.19;100153.19;3608074;39;20051;-64
2023/01/13 03:40:48;;;;;;;11.30;2.15;;;;;;;9.71;68.32;100130.75;3605763;39;20885;-64
2023/01/13 03:46:25;;;;;;;9.02;2.10;;;;;;;9.46;65.21;100100.25;3605667;39;20116;-65
2023/01/13 03:48:57;;;;;;;9.80;1.90;;;;;;;9.73;65.16;100135.03;3604383;39;20094;-63
2023/01/13 03:51:30;;;;;;;4.57;1.20;;;;;;;9.73;64.91;100139.56;3605350;39;20086;-66
2023/01/13 03:54:07;;;;;;;3.78;1.05;;;;;;;9.74;65.55;100130.56;3607332;39;20330;-65
2023/01/13 03:56:53;;;;;;;6.28;1.23;;;;;;;9.71;66.25;100130.75;3607814;39;20066;-66
2023/01/13 03:59:31;;;;;;;7.72;1.00;;;;;;;9.67;66.35;100131.94;3603226;39;20047;-63
2023/01/13 04:02:21;;;;;;;6.22;1.23;;;;;;;9.61;67.13;100137.72;3604667;39;20051;-63
2023/01/13 04:04:57;;;;;;;7.10;1.33;;;;;;;9.58;67.35;100137.91;3603732;39;20070;-65
2023/01/13 04:08:10;;;;;;;8.23;1.38;;;;;;;9.56;68.55;100134.50;3605389;39;20070;-65
2023/01/13 04:10:55;;;;;;;7.63;1.80;;;;;;;9.51;68.81;100138.38;3601975;39;20115;-63
2023/01/13 04:13:29;;;;;;;11.13;2.20;;;;;;;9.49;69.20;100139.44;3606259;39;20168;-63
2023/01/13 04:15:55;;;;;;;9.40;2.25;;;;;;;9.43;70.20;100146.06;3605637;39;20360;-63
2023/01/13 04:18:29;;;;;;;6.03;1.60;;;;;;;9.38;71.31;100148.19;3605608;39;20135;-63
2023/01/13 04:20:59;;;;;;;7.10;1.73;;;;;;;9.34;72.34;100152.06;3609482;39;20058;-63
2023/01/13 04:23:29;;;;;;;12.68;2.33;;;;;;;9.26;73.21;100154.38;3608806;39;20458;-65
2023/01/13 04:25:55;;;;;;;11.35;2.00;;;;;;;9.17;73.26;100152.34;3607757;39;20046;-62
2023/01/13 04:28:21;;;;;;;12.13;2.28;;;;;;;9.21;73.64;100173.47;3605457;39;20057;-63
2023/01/13 04:30:47;;;;;;;11.98;2.30;;;;;;;9.20;73.98;100165.56;3604108;39;20055;-62
2023/01/13 04:33:16;;;;;;;10.57;2.22;;;;;;;9.22;73.28;100160.91;3607132;39;20987;-63
2023/01/13 04:35:44;;;;;;;10.43;2.45;;;;;;;9.23;73.53;100168.03;3606753;39;20135;-63
2023/01/13 04:38:15;;;;;;;7.63;1.83;;;;;;;9.22;74.54;100163.59;3606695;39;20051;-63
2023/01/13 04:40:41;;;;;;;10.77;2.92;;;;;;;9.00;74.33;100124.81;3603476;39;20309;-62
2023/01/13 04:43:07;;;;;;;10.82;3.08;;;;;;;9.20;74.39;100161.03;3605695;39;20063;-63
2023/01/13 04:45:33;;;;;;;14.60;2.78;;;;;;;9.20;74.89;100160.19;3605821;39;20063;-62
2023/01/13 04:47:59;;;;;;;12.15;2.58;;;;;;;9.24;74.72;100167.06;3606385;39;20301;-63
2023/01/13 04:50:25;;;;;;;12.57;2.38;;;;;;;9.22;74.79;100169.81;3605669;39;20070;-63
2023/01/13 04:52:53;;;;;;;8.20;2.05;;;;;;;9.22;75.58;100161.78;3608153;39;20047;-63
2023/01/13 04:55:22;;;;;;;13.88;2.78;;;;;;;9.20;74.70;100155.69;3606117;39;20059;-63
2023/01/13 04:57:47;;;;;;;9.27;2.70;;;;;;;9.20;74.94;100144.09;3604355;39;20055;-64
2023/01/13 05:00:17;;;;;;;12.98;2.80;;;;;;;9.17;74.75;100141.63;3608115;39;20092;-63
2023/01/13 05:02:43;;;;;;;17.02;3.03;;;;;;;9.17;74.50;100147.84;3608156;39;20070;-63
2023/01/13 05:05:09;;;;;;;14.02;2.65;;;;;;;9.13;74.61;100145.44;3607718;39;20055;-64
2023/01/13 05:07:35;;;;;;;15.23;2.80;;;;;;;9.14;74.57;100140.00;3608826;39;20051;-63
2023/01/13 05:10:01;;;;;;;12.68;2.88;;;;;;;9.15;74.86;100143.53;3605882;39;20055;-63
2023/01/13 05:17:57;;;;;;;10.30;2.08;;;;;;;9.02;74.77;100124.72;3608499;39;19987;-63
2023/01/13 05:20:24;;;;;;;8.77;2.10;;;;;;;9.06;74.75;100132.44;3607245;39;20047;-63
2023/01/13 05:25:40;;;;;;;12.45;2.40;;;;;;;8.96;74.98;100135.84;3606182;39;20095;-63
2023/01/13 05:28:06;;;;;;;11.25;2.17;;;;;;;8.98;74.27;100142.84;3608643;39;20397;-63
2023/01/13 05:30:37;;;;;;;14.32;3.03;;;;;;;8.98;74.15;100148.19;3605630;39;20074;-63
2023/01/13 05:33:04;;;;;;;9.85;2.10;;;;;;;8.95;73.78;100142.19;3606819;39;20062;-63
2023/01/13 05:35:29;;;;;;;10.65;2.42;;;;;;;8.92;74.12;100140.56;3607027;39;20063;-63
2023/01/13 05:37:55;;;;;;;12.23;2.53;;;;;;;8.89;74.21;100140.75;3609986;39;20100;-64
2023/01/13 05:43:24;;;;;;;13.55;2.95;;;;;;;8.91;73.54;100149.56;3608838;39;20127;-63
2023/01/13 05:46:03;;;;;;;13.98;2.85;;;;;;;8.87;73.62;100148.03;3608049;39;20390;-63
2023/01/13 05:48:35;;;;;;;8.63;2.03;;;;;;;8.84;73.43;100164.31;3605919;39;20123;-63
2023/01/13 05:51:04;;;;;;;12.25;2.80;;;;;;;8.79;74.01;100164.63;3604358;39;20128;-63
2023/01/13 05:53:30;;;;;;;15.95;2.83;;;;;;;8.50;73.61;100120.97;3608579;39;20368;-63
2023/01/13 05:55:56;;;;;;;8.32;2.47;;;;;;;8.82;73.56;100176.97;3609482;39;20042;-63
2023/01/13 05:58:25;;;;;;;13.45;2.58;;;;;;;8.80;73.48;100173.53;3607310;39;20052;-63
2023/01/13 06:00:57;;;;;;;15.18;2.22;;;;;;;8.76;73.00;100166.66;3607053;39;20299;-63
2023/01/13 06:03:23;;;;;;;14.18;2.45;;;;;;;8.79;73.37;100182.53;3605241;39;20086;-63
2023/01/13 06:05:50;;;;;;;12.32;2.85;;;;;;;8.79;71.99;100185.22;3607861;39;20057;-63
2023/01/13 06:08:17;;;;;;;10.00;2.50;;;;;;;8.76;72.80;100180.91;3606441;39;20397;-63
2023/01/13 06:10:43;;;;;;;12.68;2.42;;;;;;;8.78;72.64;100180.78;3608698;39;20120;-63
2023/01/13 06:13:09;;;;;;;9.90;2.00;;;;;;;8.77;72.25;100182.63;3605354;39;20059;-63
2023/01/13 06:15:35;;;;;;;12.10;2.70;;;;;;;8.74;72.75;100184.63;3606301;39;20058;-63
2023/01/13 06:18:04;;;;;;;11.02;2.38;;;;;;;8.76;72.22;100188.09;3609863;39;20077;-63
2023/01/13 06:20:30;;;;;;;14.55;2.40;;;;;;;8.56;72.82;100170.59;3607915;39;20131;-63
2023/01/13 06:22:57;;;;;;;11.15;2.33;;;;;;;8.70;72.41;100199.19;3608003;39;20055;-64
2023/01/13 06:25:45;;;;;;;13.90;2.40;;;;;;;8.66;72.35;100197.66;3607704;39;20051;-63
2023/01/13 06:28:11;;;;;;;12.65;2.42;;;;;;;8.66;73.24;100208.38;3607451;39;20055;-63
2023/01/13 06:30:49;;;;;;;15.68;2.33;;;;;;;8.44;72.94;100171.41;3607984;39;20404;-63
2023/01/13 06:33:31;;;;;;;14.27;2.45;;;;;;;8.64;73.20;100211.16;3603479;39;20059;-63
2023/01/13 06:36:06;;;;;;;13.73;2.33;;;;;;;8.65;72.93;100217.38;3610599;39;20677;-63
2023/01/13 06:38:41;;;;;;;12.63;2.80;;;;;;;8.66;72.44;100219.97;3610146;39;20141;-63
2023/01/13 06:41:07;;;;;;;11.65;2.60;;;;;;;8.68;72.51;100228.75;3605041;39;20053;-63
2023/01/13 06:43:33;;;;;;;13.20;2.50;;;;;;;8.75;71.93;100213.13;3605330;39;20055;-63
2023/01/13 06:46:01;;;;;;;13.27;2.75;;;;;;;8.76;72.35;100215.75;3606786;39;20053;-63
2023/01/13 06:48:32;;;;;;;13.27;2.90;;;;;;;8.81;71.76;100218.97;3606134;39;20047;-64
2023/01/13 06:50:59;;;;;;;17.65;3.00;;;;;;;8.89;70.97;100220.31;3607632;39;20042;-63
2023/01/13 06:53:24;;;;;;;14.77;2.63;;;;;;;8.91;71.16;100219.25;3610368;39;20126;-63
2023/01/13 06:55:50;;;;;;;10.88;2.95;;;;;;;8.96;71.14;100219.81;3606888;39;20063;-63
2023/01/13 06:58:16;;;;;;;14.25;3.65;;;;;;;8.99;70.90;100216.06;3604611;39;20081;-63
2023/01/13 07:00:42;;;;;;;13.35;2.95;;;;;;;9.02;70.73;100210.50;3603921;39;20058;-63
2023/01/13 07:03:14;;;;;;;13.50;3.10;;;;;;;9.00;69.82;100212.41;3607024;39;20115;-63
2023/01/13 07:05:42;;;;;;;16.52;3.00;;;;;;;9.03;70.08;100223.81;3606585;39;20067;-64
2023/01/13 07:08:10;;;;;;;13.60;2.92;;;;;;;9.04;69.31;100219.31;3608119;39;20076;-65
2023/01/13 07:10:36;;;;;;;14.15;2.60;;;;;;;8.88;69.55;100189.97;3607697;39;20157;-64
2023/01/13 07:16:00;;;;;;;12.45;2.50;;;;;;;9.06;69.03;100234.31;3605235;39;20058;-64
2023/01/13 07:18:30;;;;;;;12.00;2.40;;;;;;;9.02;68.57;100232.81;3608627;39;20074;-64
2023/01/13 07:21:12;;;;;;;11.98;2.40;;;;;;;8.99;68.72;100242.88;3605110;39;20061;-63
2023/01/13 07:23:39;;;;;;;12.90;2.88;;;;;;;8.90;68.52;100222.88;3605302;39;20039;-63
2023/01/13 07:26:08;;;;;;;18.77;3.58;;;;;;;8.91;68.79;100242.50;3605684;39;20382;-63
2023/01/13 07:28:34;;;;;;;13.40;2.80;;;;;;;8.89;68.70;100237.25;3607385;39;20065;-64
2023/01/13 07:31:00;;;;;;;15.23;2.95;;;;;;;8.86;68.95;100228.56;3606790;39;20112;-63
2023/01/13 07:33:26;;;;;;;11.27;2.90;;;;;;;8.84;68.03;100234.00;3606332;39;20425;-63
2023/01/13 07:36:04;;;;;;;17.40;2.55;;;;;;;8.55;68.50;100179.59;3606056;39;20063;-64
2023/01/13 07:38:32;;;;;;;16.25;2.97;;;;;;;8.81;67.95;100234.19;3607179;39;20338;-64
2023/01/13 07:43:30;;;;;;;12.93;2.70;;;;;;;8.82;68.67;100235.94;3610435;39;20410;-63
2023/01/13 07:43:44;;;;;;;15.40;3.30;;;;;;;8.79;68.57;100245.03;3610492;39;20120;-64
2023/01/13 07:46:09;;;;;;;11.27;2.50;;;;;;;8.77;68.93;100254.13;3609441;39;20055;-64
2023/01/13 07:48:35;;;;;;;15.27;2.42;;;;;;;8.79;68.77;100246.84;3607619;39;20397;-64
2023/01/13 07:51:04;;;;;;;12.63;2.92;;;;;;;8.78;69.01;100245.97;3611023;39;20115;-63
2023/01/13 07:53:30;;;;;;;16.33;2.70;;;;;;;8.74;68.80;100259.66;3609579;39;20066;-63
2023/01/13 07:55:58;;;;;;;13.45;2.70;;;;;;;8.75;68.62;100256.00;3610237;39;20055;-63
2023/01/13 07:58:26;;;;;;;14.95;2.60;;;;;;;8.09;68.73;100145.00;3609770;39;20368;-63
2023/01/13 08:00:52;;;;;;;13.55;2.70;;;;;;;8.75;68.94;100261.38;3609813;39;20047;-63
2023/01/13 08:03:18;;;;;;;19.83;3.63;;;;;;;8.74;69.87;100268.56;3608482;39;20074;-63
2023/01/13 08:05:44;;;;;;;17.73;3.28;;;;;;;8.67;69.47;100264.56;3607175;39;20058;-63
2023/01/13 08:08:10;;;;;;;15.93;2.75;;;;;;;8.73;69.51;100274.03;3607631;39;20055;-62
2023/01/13 08:10:38;;;;;;;13.00;2.75;;;;;;;8.72;70.25;100277.66;3609788;39;20050;-63
2023/01/13 08:13:18;;;;;;;17.10;3.13;;;;;;;8.72;70.32;100272.28;3605807;39;20044;-64
2023/01/13 08:15:47;;;;;;;18.20;3.20;;;;;;;8.51;70.17;100237.88;3607870;39;20056;-64
2023/01/13 08:18:14;;;;;;;17.77;3.55;;;;;;;8.59;70.34;100251.66;3607119;39;20663;-64
2023/01/13 08:20:40;;;;;;;17.50;2.75;;;;;;;8.70;70.14;100269.72;3607506;39;20123;-64
2023/01/13 08:23:06;;;;;;;15.88;3.00;;;;;;;8.70;70.69;100274.22;3605289;39;20055;-65
2023/01/13 08:25:31;;;;;;;19.75;3.75;;;;;;;8.71;70.15;100276.78;3606053;39;20055;-65
2023/01/13 08:28:00;;;;;;;21.25;3.33;;;;;;;8.74;70.54;100275.75;3603892;39;20085;-64
2023/01/13 08:30:26;;;;;;;14.88;3.08;;;;;;;8.73;70.56;100277.56;3605231;39;20054;-65
2023/01/13 08:32:53;;;;;;;15.65;3.20;;;;;;;8.75;70.93;100269.41;3608301;39;20051;-64
2023/01/13 08:35:19;;;;;;;13.60;2.97;;;;;;;8.79;70.85;100276.31;3607482;39;20131;-65
2023/01/13 08:37:47;;;;;;;18.33;2.72;;;;;;;8.80;70.53;100275.34;3603553;39;20047;-64
2023/01/13 08:40:15;;;;;;;20.25;3.50;;;;;;;8.79;70.74;100269.13;3606259;39;20112;-64
2023/01/13 08:42:40;;;;;;;18.45;3.38;;;;;;;8.77;70.99;100262.16;3607134;39;20060;-64
2023/01/13 08:45:08;;;;;;;17.02;3.47;;;;;;;8.89;70.71;100280.13;3595989;39;20103;-64
2023/01/13 08:47:34;;;;;;;16.23;2.95;;;;;;;8.98;69.83;100273.34;3604849;39;20058;-64
2023/01/13 08:49:59;;;;;;;12.88;2.70;;;;;;;8.87;70.05;100243.66;3605660;39;20055;-65
2023/01/13 08:52:25;;;;;;;15.40;3.13;;;;;;;9.15;69.10;100275.78;3606077;39;20051;-64
2023/01/13 08:54:51;;;;;;;15.15;2.70;;;;;;;8.94;68.62;100239.63;3608403;39;20058;-64
2023/01/13 08:57:19;;;;;;;14.82;3.20;;;;;;;9.27;69.29;100285.72;3606262;39;20530;-65
2023/01/13 08:59:46;;;;;;;14.02;3.15;;;;;;;9.37;68.69;100285.97;3607144;39;20317;-64
2023/01/13 09:02:19;;;;;;;17.80;3.35;;;;;;;9.45;67.76;100293.50;3605558;39;20093;-64
2023/01/13 09:04:46;;;;;;;17.75;4.05;;;;;;;9.52;67.37;100293.00;3604583;39;20055;-64
2023/01/13 09:07:12;;;;;;;21.73;3.40;;;;;;;9.23;67.36;100240.44;3604724;39;20078;-64
2023/01/13 09:09:39;;;;;;;18.40;3.55;;;;;;;9.53;66.93;100285.81;3604642;39;20051;-63
2023/01/13 09:14:50;;;;;;;16.17;3.03;;;;;;;9.35;66.48;100269.09;3604499;39;20368;-64
2023/01/13 09:17:17;;;;;;;16.52;3.35;;;;;;;9.56;65.72;100300.88;3605962;39;20050;-64
2023/01/13 09:19:43;;;;;;;16.40;3.33;;;;;;;9.57;65.74;100298.06;3606876;39;20088;-63
2023/01/13 09:22:17;;;;;;;21.15;3.72;;;;;;;9.40;66.44;100264.31;3606157;39;20413;-64
2023/01/13 09:24:44;;;;;;;22.83;3.53;;;;;;;9.60;65.92;100318.47;3605258;39;20062;-64
2023/01/13 09:27:14;;;;;;;21.75;4.05;;;;;;;9.61;66.28;100329.13;3604441;39;20061;-64
2023/01/13 09:29:40;;;;;;;15.63;3.33;;;;;;;9.66;65.78;100316.25;3605272;39;20482;-64
2023/01/13 09:32:06;;;;;;;18.20;3.40;;;;;;;9.82;66.01;100329.50;3607307;39;20098;-64
2023/01/13 09:37:17;;;;;;;17.27;3.83;;;;;;;9.93;65.65;100332.34;3606138;39;20047;-64
2023/01/13 09:39:43;;;;;;;21.20;4.47;;;;;;;9.94;64.96;100339.41;3605999;39;20055;-64
2023/01/13 09:45:35;;;;;;;20.23;4.03;;;;;;;9.90;65.42;100337.91;3606171;39;20061;-65
2023/01/13 09:48:15;;;;;;;19.38;4.00;;;;;;;9.93;65.33;100336.84;3608804;39;20668;-66
2023/01/13 09:50:59;;;;;;;17.98;4.00;;;;;;;9.95;65.26;100354.56;3609161;39;20062;-63
2023/01/13 09:53:56;;;;;;;17.20;4.30;;;;;;;9.93;65.37;100358.34;3607669;39;20065;-65
2023/01/13 09:56:24;;;;;;;17.63;3.42;;;;;;;9.92;66.11;100354.75;3605084;39;20051;-64
2023/01/13 09:58:49;;;;;;;20.40;4.20;;;;;;;9.87;65.59;100348.84;3605350;39;20083;-64
2023/01/13 10:01:30;;;;;;;21.58;3.70;;;;;;;9.86;65.47;100368.59;3606342;39;20051;-64
2023/01/13 10:04:02;;;;;;;21.88;4.03;;;;;;;9.86;66.01;100357.84;3607515;39;20057;-64
2023/01/13 10:06:41;;;;;;;20.70;3.97;;;;;;;9.87;65.78;100358.75;3604758;39;20051;-64
2023/01/13 10:09:25;;;;;;;20.83;3.92;;;;;;;9.89;65.85;100352.28;3605515;39;20044;-64
2023/01/13 10:14:53;;;;;;;19.90;4.47;;;;;;;9.95;65.15;100354.56;3597015;39;20115;-64
2023/01/13 10:17:53;;;;;;;21.33;3.78;;;;;;;10.14;65.36;100361.38;3607669;39;20110;-65
2023/01/13 10:20:33;;;;;;;15.88;3.72;;;;;;;10.27;64.83;100359.63;3606832;39;20055;-64
2023/01/13 10:23:33;;;;;;;21.10;4.30;;;;;;;10.40;64.48;100357.84;3608655;39;20070;-64
2023/01/13 10:26:13;;;;;;;19.05;3.95;;;;;;;10.49;64.95;100376.97;3609055;39;20086;-64
2023/01/13 10:28:39;;;;;;;17.67;3.90;;;;;;;10.41;64.36;100370.28;3604678;39;20044;-64
2023/01/13 10:31:11;;;;;;;21.90;4.05;;;;;;;10.31;66.35;100388.00;3607481;39;20065;-65
2023/01/13 10:33:36;;;;;;;20.08;4.15;;;;;;;10.09;67.69;100379.66;3608510;39;21469;-65
2023/01/13 10:36:14;;;;;;;21.75;3.95;;;;;;;9.94;68.86;100390.44;3608112;39;20066;-64
2023/01/13 10:38:45;;;;;;;17.50;3.42;;;;;;;9.70;69.48;100379.47;3605925;39;20477;-63
2023/01/13 10:41:25;;;;;;;17.10;3.67;;;;;;;9.74;70.18;100397.13;3610657;39;20047;-65
2023/01/13 10:43:51;;;;;;;20.23;4.25;;;;;;;9.65;72.05;100418.34;3608767;39;20081;-65
2023/01/13 10:46:18;;;;;;;20.75;3.72;;;;;;;9.40;71.96;100409.16;3607208;39;20055;-65
2023/01/13 10:48:55;;;;;;;21.25;3.80;;;;;;;9.38;72.96;100419.13;3606942;39;20055;-65
2023/01/13 10:51:38;;;;;;;22.33;4.03;;;;;;;9.29;74.16;100419.69;3607921;39;20063;-63
2023/01/13 10:54:21;;;;;;;16.20;3.75;;;;;;;9.22;75.60;100427.28;3603566;39;20063;-64
2023/01/13 10:56:48;;;;;;;19.23;3.80;;;;;;;9.15;76.02;100425.94;3605842;39;20042;-65
2023/01/13 10:59:21;;;;;;;16.95;3.58;;;;;;;9.13;75.80;100418.94;3608150;39;20061;-66
2023/01/13 11:02:16;;;;;;;17.95;3.50;;;;;;;9.14;76.29;100416.19;3607254;39;20608;-65
2023/01/13 11:04:54;;;;;;;23.73;4.85;;;;;;;9.18;75.92;100414.16;3604439;39;20460;-64
2023/01/13 11:07:45;;;;;;;16.58;3.20;;;;;;;9.20;74.77;100412.25;3604430;39;20300;-64
2023/01/13 11:10:19;;;;;;;22.40;3.75;;;;;;;9.21;74.85;100422.03;3608343;39;20050;-64
2023/01/13 11:13:09;;;;;;;16.08;3.70;;;;;;;9.27;74.28;100413.59;3607253;39;20043;-64
2023/01/13 11:16:11;;;;;;;19.73;3.80;;;;;;;9.29;73.14;100417.00;3607113;39;20115;-64
2023/01/13 11:19:11;;;;;;;21.77;4.20;;;;;;;9.33;72.43;100423.94;3607673;39;20055;-63
2023/01/13 11:22:10;;;;;;;19.75;3.67;;;;;;;9.37;72.46;100412.03;3606457;39;20047;-63
2023/01/13 11:24:57;;;;;;;18.85;3.53;;;;;;;9.41;71.66;100421.59;3604429;39;20039;-64
2023/01/13 11:27:44;;;;;;;16.73;3.30;;;;;;;9.27;71.59;100373.34;3606691;39;20449;-63
2023/01/13 11:30:24;;;;;;;18.60;3.20;;;;;;;9.61;71.40;100433.78;3607786;39;20139;-64
2023/01/13 11:33:08;;;;;;;16.63;3.67;;;;;;;9.67;70.53;100427.13;3605384;39;20058;-64
2023/01/13 11:35:41;;;;;;;;;;;;;;;9.69;69.88;100423.38;3606092;39;20055;-64
2023/01/13 11:38:37;;;;;;;23.50;4.15;;;;;;;9.74;69.83;100437.38;3607788;39;19938;-64
2023/01/13 11:41:16;;;;;;;19.85;3.45;;;;;;;9.79;69.02;100431.72;3606731;39;20047;-64
2023/01/13 11:44:00;;;;;;;15.57;3.15;;;;;;;9.80;68.29;100452.25;3605220;39;20143;-64
2023/01/13 11:46:27;;;;;;;17.67;3.53;;;;;;;9.84;68.44;100451.06;3607612;39;20059;-64
2023/01/13 11:48:55;;;;;;;22.95;4.47;;;;;;;9.75;68.85;100433.72;3607151;39;20055;-64
2023/01/13 11:51:48;;;;;;;16.45;3.22;;;;;;;9.88;68.25;100452.59;3607026;39;20065;-64
2023/01/13 11:54:29;;;;;;;22.08;3.58;;;;;;;9.90;68.10;100460.56;3604016;39;20055;-65
2023/01/13 11:57:36;;;;;;;15.68;3.30;;;;;;;9.88;67.25;100463.31;3609378;39;20067;-64
2023/01/13 12:00:17;;;;;;;17.27;3.30;;;;;;;9.91;67.70;100456.91;3607952;39;20083;-64
2023/01/13 12:03:09;;;;;;;20.20;4.38;;;;;;;9.95;67.40;100459.28;3610844;39;20073;-64
2023/01/13 12:05:48;;;;;;;17.05;3.40;;;;;;;9.97;67.39;100465.41;3605421;39;20071;-63
2023/01/13 12:08:34;;;;;;;16.67;3.65;;;;;;;9.90;66.48;100466.78;3605707;39;20054;-63
2023/01/13 12:11:23;;;;;;;12.50;2.92;;;;;;;9.97;66.95;100483.34;3605384;39;20058;-62
2023/01/13 12:14:26;;;;;;;13.98;3.63;;;;;;;10.04;66.65;100478.44;3606326;39;20067;-63
2023/01/13 12:16:51;;;;;;;15.38;3.22;;;;;;;10.06;66.61;100465.78;3606900;39;20374;-63
2023/01/13 12:19:31;;;;;;;14.02;3.13;;;;;;;10.06;65.55;100472.03;3607167;39;20063;-63
2023/01/13 12:22:19;;;;;;;16.85;3.17;;;;;;;10.11;65.32;100479.75;3606681;39;20119;-62
2023/01/13 12:25:02;;;;;;;16.30;3.33;;;;;;;10.14;65.26;100479.56;3607066;39;20063;-62
2023/01/13 12:27:58;;;;;;;13.60;3.35;;;;;;;10.14;64.00;100475.03;3609088;39;20131;-63
2023/01/13 12:30:52;;;;;;;13.60;2.58;;;;;;;10.17;63.54;100474.84;3606208;39;20175;-63
2023/01/13 12:33:50;;;;;;;15.30;3.22;;;;;;;10.22;63.26;100488.00;3604390;39;20047;-62
2023/01/13 12:37:10;;;;;;;14.85;3.00;;;;;;;10.21;63.72;100503.25;3596915;39;20124;-63
2023/01/13 12:39:51;;;;;;;11.32;2.58;;;;;;;10.23;63.93;100478.97;3607420;39;20278;-62
2023/01/13 12:45:30;;;;;;;14.20;3.00;;;;;;;10.19;63.50;100489.03;3610414;39;20420;-63